This is the latest recevied weather packets stored in our database for station/object KD4EED. If no packets are shown the sender has not sent any weather packets the latest 10 day(s).
| Time | Temp. | Humidity | Pressure | Rain* | Wind** | Luminosity | Snow |
|---|---|---|---|---|---|---|---|
| 1777251873 | 18.89° C | 43% | 1011.8 hPa | - | - | 84 W/m² | - |
| 1777251570 | 19.44° C | 52% | 1011.5 hPa | - | - | 90 W/m² | - |
| 1777251267 | 19.44° C | 53% | 1011.6 hPa | - | - | 97 W/m² | - |
| 1777250962 | 19.44° C | 54% | 1011.7 hPa | - | - | 106 W/m² | - |
| 1777250659 | 19.44° C | 52% | 1011.6 hPa | - | - | 122 W/m² | - |
| 1777250356 | 19.44° C | 52% | 1011.6 hPa | - | - | 148 W/m² | - |
| 1777250050 | 20° C | 50% | 1011.8 hPa | - | - | 183 W/m² | - |
| 1777249748 | 20° C | 51% | 1011.8 hPa | - | - | 217 W/m² | - |
| 1777249443 | 20° C | 52% | 1011.8 hPa | - | - | 247 W/m² | - |
| 1777249141 | 20° C | 51% | 1011.7 hPa | - | - | 267 W/m² | - |
| 1777248836 | 20° C | 51% | 1011.7 hPa | - | - | 290 W/m² | - |
| 1777248534 | 20° C | 51% | 1011.7 hPa | - | - | 334 W/m² | - |
| 1777248230 | 20° C | 50% | 1011.7 hPa | - | - | 327 W/m² | - |
| 1777247930 | 20° C | 50% | 1011.6 hPa | - | - | 345 W/m² | - |
| 1777247625 | 20° C | 49% | 1011.7 hPa | - | - | 365 W/m² | - |
| 1777247323 | 20° C | 49% | 1011.6 hPa | - | - | 385 W/m² | - |
| 1777247021 | 20° C | 51% | 1011.5 hPa | - | - | 411 W/m² | - |
| 1777246717 | 20° C | 51% | 1011.5 hPa | - | - | 436 W/m² | - |
| 1777246413 | 20° C | 51% | 1011.6 hPa | - | - | 432 W/m² | - |
| 1777246111 | 20° C | 51% | 1011.5 hPa | - | - | 450 W/m² | - |
| 1777245808 | 20° C | 51% | 1011.6 hPa | - | - | 462 W/m² | - |
| 1777245506 | 20° C | 49% | 1011.6 hPa | - | - | 480 W/m² | - |
| 1777245202 | 20° C | 51% | 1011.5 hPa | - | - | 514 W/m² | - |
| 1777244898 | 20° C | 50% | 1011.7 hPa | - | - | 539 W/m² | - |
| 1777244594 | 20° C | 49% | 1011.5 hPa | - | - | 534 W/m² | - |
* Rain since midnight (hover to see other rain measurements)
** Current wind speed in m/s (hover to see current wind gust speed)